createdAt,value
2018-09-17T00:00:24.330Z,1.50
2018-09-17T00:02:53.911Z,1.50
2018-09-17T00:05:22.319Z,1.80
2018-09-17T00:07:50.636Z,1.73
2018-09-17T00:10:18.932Z,1.53
2018-09-17T00:12:46.989Z,1.80
2018-09-17T00:15:15.042Z,1.60
2018-09-17T00:17:43.146Z,1.90
2018-09-17T00:20:11.243Z,1.70
2018-09-17T00:22:39.406Z,1.70
2018-09-17T00:25:07.494Z,1.70
2018-09-17T00:27:35.623Z,1.40
2018-09-17T00:30:03.736Z,1.80
2018-09-17T00:32:31.822Z,1.80
2018-09-17T00:34:59.889Z,1.57
2018-09-17T00:37:27.946Z,1.37
2018-09-17T00:39:56.039Z,1.50
2018-09-17T00:42:24.378Z,1.40
2018-09-17T00:44:52.501Z,1.67
2018-09-17T00:47:20.562Z,1.40
2018-09-17T00:49:48.698Z,1.50
2018-09-17T00:52:17.382Z,1.70
2018-09-17T00:54:45.458Z,1.63
2018-09-17T00:57:13.570Z,1.77
2018-09-17T00:59:41.687Z,1.50
2018-09-17T01:02:09.756Z,1.57
2018-09-17T01:04:38.043Z,2.03
2018-09-17T01:07:06.167Z,1.53
2018-09-17T01:09:39.733Z,1.60
2018-09-17T01:12:07.828Z,1.77
2018-09-17T01:14:35.906Z,1.40
2018-09-17T01:17:04.132Z,1.47
2018-09-17T01:19:32.214Z,1.10
2018-09-17T01:22:00.298Z,1.53
2018-09-17T01:24:28.370Z,1.37
2018-09-17T01:26:56.423Z,1.40
2018-09-17T01:29:24.567Z,1.33
2018-09-17T01:31:52.753Z,1.50
2018-09-17T01:34:20.860Z,1.40
2018-09-17T01:36:49.183Z,1.30
2018-09-17T01:39:17.272Z,1.63
2018-09-17T01:41:45.345Z,1.40
2018-09-17T01:44:13.416Z,1.53
2018-09-17T01:46:41.502Z,1.23
2018-09-17T01:49:09.606Z,1.27
2018-09-17T01:51:37.699Z,1.80
2018-09-17T01:54:06.003Z,1.40
2018-09-17T01:56:34.088Z,1.53
2018-09-17T01:59:02.159Z,1.40
2018-09-17T02:01:30.315Z,1.40
2018-09-17T02:03:58.386Z,1.47
2018-09-17T02:06:26.510Z,1.60
2018-09-17T02:08:54.621Z,1.20
2018-09-17T02:11:22.691Z,1.50
2018-09-17T02:13:50.773Z,1.43
2018-09-17T02:16:18.829Z,1.47
2018-09-17T02:18:46.984Z,1.40
2018-09-17T02:21:15.062Z,1.20
2018-09-17T02:23:43.470Z,1.40
2018-09-17T02:26:12.028Z,1.80
2018-09-17T02:28:40.150Z,1.50
2018-09-17T02:31:08.218Z,1.60
2018-09-17T02:33:36.298Z,1.40
2018-09-17T02:36:04.420Z,1.53
2018-09-17T02:38:33.422Z,1.47
2018-09-17T02:41:01.495Z,1.23
2018-09-17T02:43:30.378Z,1.60
2018-09-17T02:45:58.470Z,1.30
2018-09-17T02:48:26.723Z,1.70
2018-09-17T02:50:55.115Z,1.50
2018-09-17T02:53:23.330Z,1.60
2018-09-17T02:55:51.355Z,1.50
2018-09-17T02:58:19.438Z,1.70
2018-09-17T03:00:47.519Z,1.63
2018-09-17T03:03:15.658Z,1.63
2018-09-17T03:05:43.950Z,1.50
2018-09-17T03:08:12.023Z,1.60
2018-09-17T03:10:40.078Z,1.70
2018-09-17T03:13:08.158Z,1.83
2018-09-17T03:15:48.938Z,1.50
2018-09-17T03:18:22.102Z,2.03
2018-09-17T03:20:50.203Z,1.60
2018-09-17T03:23:18.305Z,1.70
2018-09-17T03:25:46.410Z,1.73
2018-09-17T03:28:14.502Z,1.87
2018-09-17T03:30:42.607Z,1.80
2018-09-17T03:33:10.682Z,1.70
2018-09-17T03:35:38.751Z,1.97
2018-09-17T03:38:23.722Z,1.73
2018-09-17T03:40:51.845Z,1.73
2018-09-17T03:43:19.918Z,1.70
2018-09-17T03:45:48.058Z,1.50
2018-09-17T03:48:16.133Z,1.73
2018-09-17T03:50:44.218Z,2.20
2018-09-17T03:53:12.301Z,1.63
2018-09-17T03:55:40.434Z,1.87
2018-09-17T03:58:08.555Z,2.23
2018-09-17T04:00:36.671Z,1.30
2018-09-17T04:03:04.769Z,1.37
2018-09-17T04:05:32.932Z,1.80
2018-09-17T04:08:01.012Z,2.07
2018-09-17T04:10:29.109Z,1.60
2018-09-17T04:12:57.235Z,1.80
2018-09-17T04:15:26.250Z,1.87
2018-09-17T04:17:54.303Z,1.90
2018-09-17T04:20:22.386Z,1.70
2018-09-17T04:22:50.454Z,2.07
2018-09-17T04:25:18.550Z,1.70
2018-09-17T04:27:46.619Z,1.63
2018-09-17T04:30:14.797Z,1.90
2018-09-17T04:32:42.886Z,1.43
2018-09-17T04:35:11.022Z,1.50
2018-09-17T04:37:40.270Z,2.07
2018-09-17T04:40:08.867Z,1.87
2018-09-17T04:42:38.011Z,2.00
2018-09-17T04:45:06.210Z,1.90
2018-09-17T04:47:34.730Z,1.73
2018-09-17T04:50:02.928Z,1.90
2018-09-17T04:52:31.581Z,1.63
2018-09-17T04:55:00.328Z,2.17
2018-09-17T04:57:28.523Z,1.80
2018-09-17T04:59:56.511Z,2.00
2018-09-17T05:02:24.630Z,1.70
2018-09-17T05:04:52.751Z,2.00
2018-09-17T05:07:21.366Z,1.70
2018-09-17T05:09:49.410Z,1.77
2018-09-17T05:12:17.822Z,1.77
2018-09-17T05:14:46.003Z,2.00
2018-09-17T05:17:14.123Z,2.00
2018-09-17T05:19:42.207Z,1.63
2018-09-17T05:22:10.290Z,1.80
2018-09-17T05:24:38.378Z,1.87
2018-09-17T05:27:06.530Z,1.67
2018-09-17T05:29:34.741Z,2.07
2018-09-17T05:32:02.804Z,1.90
2018-09-17T05:34:30.902Z,2.10
2018-09-17T05:36:59.051Z,2.07
2018-09-17T05:39:27.188Z,1.70
2018-09-17T05:41:55.286Z,1.80
2018-09-17T05:44:23.372Z,2.30
2018-09-17T05:46:51.451Z,1.77
2018-09-17T05:49:19.551Z,1.73
2018-09-17T05:51:47.610Z,1.80
2018-09-17T05:54:15.707Z,1.90
2018-09-17T05:56:43.807Z,2.00
2018-09-17T05:59:11.956Z,1.83
2018-09-17T06:01:40.051Z,2.00
2018-09-17T06:04:08.191Z,1.90
2018-09-17T06:06:37.190Z,1.90
2018-09-17T06:09:08.482Z,1.97
2018-09-17T06:11:36.686Z,1.80
2018-09-17T06:14:04.803Z,1.93
2018-09-17T06:16:32.882Z,1.67
2018-09-17T06:19:00.970Z,1.93
2018-09-17T06:21:29.118Z,1.60
2018-09-17T06:23:57.414Z,1.97
2018-09-17T06:26:25.530Z,1.87
2018-09-17T06:28:53.711Z,1.93
2018-09-17T06:31:21.854Z,1.90
2018-09-17T06:33:50.053Z,1.50
2018-09-17T06:36:18.221Z,2.10
2018-09-17T06:38:46.327Z,1.80
2018-09-17T06:41:14.477Z,1.80
2018-09-17T06:43:42.638Z,1.60
2018-09-17T06:46:10.809Z,1.73
2018-09-17T06:48:39.149Z,2.07
2018-09-17T06:51:07.319Z,1.87
2018-09-17T06:53:35.512Z,1.80
2018-09-17T06:56:03.621Z,1.50
2018-09-17T06:58:31.826Z,2.00
2018-09-17T07:00:59.950Z,1.70
2018-09-17T07:03:29.114Z,1.90
2018-09-17T07:05:57.211Z,1.60
2018-09-17T07:08:25.326Z,1.90
2018-09-17T07:10:53.459Z,1.90
2018-09-17T07:13:21.570Z,1.70
2018-09-17T07:15:49.698Z,1.83
2018-09-17T07:18:17.773Z,2.10
2018-09-17T07:20:45.911Z,1.77
2018-09-17T07:23:14.056Z,1.90
2018-09-17T07:25:42.254Z,1.90
2018-09-17T07:28:10.362Z,1.90
2018-09-17T07:30:38.539Z,1.83
2018-09-17T07:33:06.691Z,1.77
2018-09-17T07:35:34.843Z,1.73
2018-09-17T07:38:02.965Z,1.70
2018-09-17T07:40:31.088Z,2.10
2018-09-17T07:42:59.224Z,1.80
2018-09-17T07:45:27.322Z,1.80
2018-09-17T07:47:55.457Z,1.93
2018-09-17T07:50:23.547Z,2.33
2018-09-17T07:52:51.657Z,2.10
2018-09-17T07:55:19.714Z,2.20
2018-09-17T07:57:47.819Z,1.90
2018-09-17T08:00:15.944Z,2.13
2018-09-17T08:02:44.050Z,1.67
2018-09-17T08:05:12.131Z,2.00
2018-09-17T08:07:40.232Z,1.80
2018-09-17T08:10:08.322Z,1.90
2018-09-17T08:12:36.382Z,1.80
2018-09-17T08:15:05.694Z,1.70
2018-09-17T08:17:33.759Z,1.70
2018-09-17T08:20:02.423Z,2.10
2018-09-17T08:22:30.759Z,2.00
2018-09-17T08:24:58.862Z,1.80
2018-09-17T08:27:27.020Z,1.83
2018-09-17T08:29:55.115Z,2.07
2018-09-17T08:32:23.313Z,1.97
2018-09-17T08:34:51.536Z,1.90
2018-09-17T08:37:19.699Z,2.00
2018-09-17T08:39:48.025Z,2.27
2018-09-17T08:42:16.269Z,2.27
2018-09-17T08:44:45.353Z,1.77
2018-09-17T08:47:13.541Z,2.23
2018-09-17T08:49:41.742Z,2.10
2018-09-17T08:52:09.921Z,1.87
2018-09-17T08:54:43.425Z,2.03
2018-09-17T08:57:17.099Z,1.90
2018-09-17T08:59:46.742Z,1.90
2018-09-17T09:02:16.374Z,2.03
2018-09-17T09:04:50.039Z,2.00
2018-09-17T09:07:23.746Z,1.90
2018-09-17T09:09:54.550Z,1.80
2018-09-17T09:12:26.012Z,2.10
2018-09-17T09:15:00.391Z,1.87
2018-09-17T09:17:28.910Z,2.03
2018-09-17T09:19:57.911Z,1.90
2018-09-17T09:22:26.291Z,1.60
2018-09-17T09:24:54.468Z,1.60
2018-09-17T09:27:22.703Z,2.10
2018-09-17T09:32:28.155Z,1.33
2018-09-17T09:34:56.287Z,1.60
2018-09-17T09:37:24.559Z,1.60
2018-09-17T09:39:52.676Z,1.77
2018-09-17T09:42:20.764Z,2.13
2018-09-17T09:44:48.995Z,1.80
2018-09-17T09:47:17.195Z,1.87
2018-09-17T09:49:45.473Z,1.60
2018-09-17T09:52:13.686Z,1.70
2018-09-17T09:54:41.975Z,1.77
2018-09-17T09:57:10.453Z,1.60
2018-09-17T09:59:38.606Z,1.70
2018-09-17T10:02:12.439Z,1.20
2018-09-17T10:04:40.723Z,1.57
2018-09-17T10:07:08.991Z,1.70
2018-09-17T10:09:42.678Z,1.33
2018-09-17T10:12:16.303Z,1.50
2018-09-17T10:14:49.791Z,1.10
2018-09-17T10:17:23.242Z,1.27
2018-09-17T10:19:52.354Z,1.47
2018-09-17T10:22:20.970Z,1.43
2018-09-17T10:24:49.110Z,1.37
2018-09-17T10:27:17.823Z,1.20
2018-09-17T10:29:46.129Z,1.53
2018-09-17T10:32:14.244Z,1.50
2018-09-17T10:34:42.663Z,1.40
2018-09-17T10:37:11.209Z,1.30
2018-09-17T10:39:39.409Z,1.30
2018-09-17T10:42:07.526Z,1.10
2018-09-17T10:44:35.814Z,1.40
2018-09-17T10:47:04.012Z,1.10
2018-09-17T10:49:32.259Z,1.23
2018-09-17T10:52:00.439Z,1.10
2018-09-17T10:54:28.569Z,1.43
2018-09-17T10:56:56.662Z,1.13
2018-09-17T10:59:24.760Z,1.20
2018-09-17T11:01:53.163Z,1.20
2018-09-17T11:04:21.434Z,1.33
2018-09-17T11:06:49.531Z,1.30
2018-09-17T11:09:17.668Z,1.37
2018-09-17T11:11:47.018Z,1.10
2018-09-17T11:14:15.311Z,0.90
2018-09-17T11:16:43.561Z,1.47
2018-09-17T11:19:11.704Z,1.50
2018-09-17T11:21:39.827Z,1.50
2018-09-17T11:24:07.931Z,1.20
2018-09-17T11:26:36.027Z,1.20
2018-09-17T11:29:04.136Z,1.63
2018-09-17T11:31:32.329Z,1.00
2018-09-17T11:34:11.350Z,1.43
2018-09-17T11:36:39.526Z,1.80
2018-09-17T11:39:09.035Z,1.17
2018-09-17T11:41:38.528Z,1.23
2018-09-17T11:44:06.700Z,1.30
2018-09-17T11:46:35.494Z,1.40
2018-09-17T11:49:03.791Z,1.20
2018-09-17T11:51:31.955Z,1.10
2018-09-17T11:54:00.648Z,1.10
2018-09-17T11:56:28.841Z,1.47
2018-09-17T11:58:57.098Z,1.50
2018-09-17T12:01:30.910Z,1.47
2018-09-17T12:04:05.104Z,1.57
2018-09-17T12:06:39.275Z,1.70
2018-09-17T12:09:09.644Z,1.33
2018-09-17T12:11:37.682Z,1.60
2018-09-17T12:14:06.866Z,1.80
2018-09-17T12:16:34.966Z,1.30
2018-09-17T12:19:03.157Z,1.00
2018-09-17T12:21:31.283Z,1.30
2018-09-17T12:23:59.539Z,1.27
2018-09-17T12:26:27.702Z,1.67
2018-09-17T12:28:57.062Z,1.17
2018-09-17T12:31:25.219Z,0.73
2018-09-17T12:33:53.450Z,1.20
2018-09-17T12:36:21.426Z,1.67
2018-09-17T12:38:49.544Z,1.50
2018-09-17T12:41:18.709Z,1.37
2018-09-17T12:43:47.115Z,1.20
2018-09-17T12:46:15.372Z,1.77
2018-09-17T12:48:47.919Z,1.47
2018-09-17T12:51:16.217Z,1.40
2018-09-17T12:53:47.852Z,1.47
2018-09-17T12:56:15.987Z,1.60
2018-09-17T12:58:44.087Z,2.53
2018-09-17T13:01:12.284Z,1.20
2018-09-17T13:03:40.355Z,1.00
2018-09-17T13:06:08.514Z,1.10
2018-09-17T13:08:39.873Z,1.30
2018-09-17T13:11:11.616Z,1.40
2018-09-17T13:13:40.308Z,1.23
2018-09-17T13:16:18.609Z,1.63
2018-09-17T13:18:47.395Z,1.40
2018-09-17T13:21:16.307Z,1.17
2018-09-17T13:23:44.463Z,1.20
2018-09-17T13:26:13.143Z,1.30
2018-09-17T13:28:41.253Z,1.30
2018-09-17T13:31:10.089Z,1.10
2018-09-17T13:33:38.256Z,1.17
2018-09-17T13:36:06.456Z,0.90
2018-09-17T13:38:35.047Z,1.50
2018-09-17T13:41:03.482Z,1.07
2018-09-17T13:43:32.579Z,1.10
2018-09-17T13:46:01.122Z,1.10
2018-09-17T13:48:29.520Z,1.03
2018-09-17T13:50:57.789Z,1.20
2018-09-17T13:53:26.023Z,1.00
2018-09-17T13:55:54.170Z,1.00
2018-09-17T13:58:22.571Z,0.90
2018-09-17T14:00:50.698Z,0.93
2018-09-17T14:03:18.955Z,1.10
2018-09-17T14:05:47.500Z,1.00
2018-09-17T14:08:15.823Z,0.80
2018-09-17T14:10:43.923Z,1.10
2018-09-17T14:13:12.208Z,0.97
2018-09-17T14:15:44.556Z,1.23
2018-09-17T14:18:12.717Z,0.90
2018-09-17T14:20:40.960Z,1.00
2018-09-17T14:23:09.079Z,1.20
2018-09-17T14:25:37.439Z,0.93
2018-09-17T14:28:05.648Z,0.80
2018-09-17T14:30:34.038Z,1.03
2018-09-17T14:33:07.789Z,0.70
2018-09-17T14:35:37.692Z,1.33
2018-09-17T14:38:05.853Z,0.90
2018-09-17T14:40:34.147Z,1.30
2018-09-17T14:43:03.526Z,0.93
2018-09-17T14:45:31.799Z,0.90
2018-09-17T14:48:00.068Z,1.07
2018-09-17T14:50:28.527Z,1.00
2018-09-17T14:52:57.599Z,1.10
2018-09-17T14:55:26.105Z,1.00
2018-09-17T14:57:54.257Z,1.20
2018-09-17T15:00:25.814Z,1.10
2018-09-17T15:02:53.989Z,0.93
2018-09-17T15:05:24.444Z,1.33
2018-09-17T15:07:52.593Z,1.30
2018-09-17T15:10:30.983Z,0.90
2018-09-17T15:13:08.779Z,1.07
2018-09-17T15:15:42.391Z,1.20
2018-09-17T15:18:10.622Z,1.20
2018-09-17T15:20:39.122Z,1.37
2018-09-17T15:23:07.397Z,1.20
2018-09-17T15:25:35.639Z,1.30
2018-09-17T15:28:03.768Z,1.37
2018-09-17T15:30:31.996Z,1.50
2018-09-17T15:33:03.280Z,2.00
2018-09-17T15:35:31.481Z,1.80
2018-09-17T15:38:00.404Z,2.00
2018-09-17T15:40:28.534Z,1.90
2018-09-17T15:42:56.690Z,2.37
2018-09-17T15:45:25.088Z,2.00
2018-09-17T15:47:53.207Z,2.03
2018-09-17T15:50:21.443Z,1.97
2018-09-17T15:52:49.584Z,2.17
2018-09-17T15:55:19.038Z,4.17
2018-09-17T15:57:47.593Z,7.47
2018-09-17T16:00:15.745Z,6.50
2018-09-17T16:02:43.974Z,5.77
2018-09-17T16:05:12.080Z,4.27
2018-09-17T16:07:40.679Z,4.17
2018-09-17T16:10:08.960Z,7.10
2018-09-17T16:12:37.434Z,6.20
2018-09-17T16:15:05.567Z,4.57
2018-09-17T16:17:34.020Z,3.80
2018-09-17T16:20:02.207Z,3.97
2018-09-17T16:22:31.425Z,3.40
2018-09-17T16:24:59.547Z,2.97
2018-09-17T16:27:28.028Z,3.20
2018-09-17T16:29:56.570Z,3.20
2018-09-17T16:32:24.871Z,2.90
2018-09-17T16:34:53.356Z,3.30
2018-09-17T16:37:23.629Z,2.30
2018-09-17T16:39:53.522Z,2.43
2018-09-17T16:42:23.664Z,2.60
2018-09-17T16:44:52.214Z,2.10
2018-09-17T16:47:20.579Z,2.37
2018-09-17T16:49:53.525Z,2.27
2018-09-17T16:52:23.854Z,2.27
2018-09-17T16:54:53.037Z,2.00
2018-09-17T16:57:22.451Z,1.77
2018-09-17T16:59:53.632Z,1.90
2018-09-17T17:02:21.971Z,1.73
2018-09-17T17:04:50.478Z,2.37
2018-09-17T17:07:18.744Z,1.70
2018-09-17T17:09:47.002Z,2.20
2018-09-17T17:12:15.181Z,2.30
2018-09-17T17:14:43.587Z,2.17
2018-09-17T17:17:11.728Z,2.50
2018-09-17T17:19:39.894Z,2.03
2018-09-17T17:22:08.096Z,2.10
2018-09-17T17:24:36.216Z,1.80
2018-09-17T17:27:04.465Z,2.33
2018-09-17T17:29:32.609Z,1.80
2018-09-17T17:32:00.871Z,2.67
2018-09-17T17:34:29.010Z,2.10
2018-09-17T17:36:58.030Z,2.03
2018-09-17T17:39:26.236Z,2.03
2018-09-17T17:41:54.346Z,2.47
2018-09-17T17:44:22.598Z,2.40
2018-09-17T17:46:50.748Z,2.47
2018-09-17T17:49:18.843Z,2.13
2018-09-17T17:51:47.002Z,2.17
2018-09-17T17:54:15.131Z,2.00
2018-09-17T17:56:43.342Z,2.07
2018-09-17T17:59:11.447Z,2.00
2018-09-17T18:01:39.727Z,2.13
2018-09-17T18:04:08.031Z,2.30
2018-09-17T18:06:36.391Z,2.10
2018-09-17T18:09:08.262Z,1.80
2018-09-17T18:11:36.462Z,2.17
2018-09-17T18:14:04.603Z,1.70
2018-09-17T18:16:32.765Z,1.57
2018-09-17T18:19:01.994Z,1.57
2018-09-17T18:21:30.612Z,1.90
2018-09-17T18:23:58.743Z,2.13
2018-09-17T18:26:27.492Z,2.03
2018-09-17T18:28:55.803Z,2.30
2018-09-17T18:31:23.923Z,1.70
2018-09-17T18:33:53.598Z,2.03
2018-09-17T18:36:21.985Z,2.30
2018-09-17T18:38:50.169Z,2.10
2018-09-17T18:41:18.405Z,2.03
2018-09-17T18:43:46.811Z,2.37
2018-09-17T18:46:15.223Z,2.20
2018-09-17T18:48:43.356Z,2.00
2018-09-17T18:51:11.618Z,1.83
2018-09-17T18:53:39.721Z,2.03
2018-09-17T18:56:07.917Z,2.03
2018-09-17T18:58:36.193Z,1.93
2018-09-17T19:01:05.004Z,1.93
2018-09-17T19:03:34.434Z,1.90
2018-09-17T19:06:02.844Z,1.90
2018-09-17T19:08:31.747Z,2.13
2018-09-17T19:11:00.209Z,2.03
2018-09-17T19:13:28.542Z,2.00
2018-09-17T19:15:58.527Z,1.87
2018-09-17T19:18:29.206Z,1.90
2018-09-17T19:20:57.933Z,2.50
2018-09-17T19:23:31.369Z,2.10
2018-09-17T19:25:59.777Z,2.43
2018-09-17T19:28:33.366Z,2.93
2018-09-17T19:31:01.636Z,3.00
2018-09-17T19:33:29.955Z,3.13
2018-09-17T19:35:59.380Z,2.87
2018-09-17T19:38:33.306Z,3.40
2018-09-17T19:41:02.511Z,3.73
2018-09-17T19:43:59.868Z,3.43
2018-09-17T19:49:54.159Z,3.10
2018-09-17T19:52:24.191Z,2.67
2018-09-17T19:54:53.270Z,3.23
2018-09-17T19:57:36.913Z,3.00
2018-09-17T20:00:05.587Z,3.07
2018-09-17T20:02:33.923Z,3.17
2018-09-17T20:05:07.585Z,3.00
2018-09-17T20:07:39.657Z,2.70
2018-09-17T20:10:08.234Z,2.90
2018-09-17T20:12:36.723Z,2.90
2018-09-17T20:15:05.860Z,2.73
2018-09-17T20:17:34.047Z,2.93
2018-09-17T20:22:54.821Z,2.83
2018-09-17T20:28:53.700Z,2.97
2018-09-17T20:31:23.673Z,3.00
2018-09-17T20:33:52.268Z,2.93
2018-09-17T20:36:20.821Z,2.93
2018-09-17T20:38:50.064Z,2.83
2018-09-17T20:41:33.659Z,2.47
2018-09-17T20:44:03.084Z,2.60
2018-09-17T20:46:31.582Z,2.50
2018-09-17T20:49:00.131Z,3.23
2018-09-17T20:51:28.597Z,2.60
2018-09-17T20:53:57.568Z,2.53
2018-09-17T20:56:29.210Z,2.73
2018-09-17T20:58:57.421Z,2.40
2018-09-17T21:01:26.271Z,2.50
2018-09-17T21:03:59.021Z,2.50
2018-09-17T21:06:28.007Z,2.40
2018-09-17T21:30:19.311Z,2.07
2018-09-17T21:32:57.202Z,2.43
2018-09-17T21:35:25.564Z,1.70
2018-09-17T21:37:54.662Z,2.50
2018-09-17T21:40:24.626Z,2.47
2018-09-17T21:42:53.739Z,2.47
2018-09-17T21:45:23.212Z,1.80
2018-09-17T21:47:51.447Z,2.67
2018-09-17T21:50:20.030Z,1.87
2018-09-17T21:55:37.485Z,2.17
2018-09-17T21:58:07.480Z,2.80
2018-09-17T22:00:48.723Z,2.33
2018-09-17T22:03:34.754Z,1.93
2018-09-17T22:26:40.926Z,1.90
2018-09-17T22:46:46.408Z,2.70
2018-09-17T22:52:26.799Z,2.00
